Latest Weather Observations for Jervois

IDD60801

Issued at 1:01 pm CST Wednesday 24 May 2017 (issued every 30 minutes, with the page automatically refreshed every 10 minutes)

About weather observations | Map of weather stations | Latest weather observations for NT | Other Formats
Station Details ID: 015602 Name: JERVOIS Lat: -22.95 Lon: 136.14 Height: 328.0 m
Data from the previous 72 hours. | See also: Recent months at Jervois
Date/Time
CST
Temp
°C
App
Temp
°C
Dew
Point
°C
Rel
Hum
%
Delta-T
°C
Wind Press
QNH
hPa
Press
MSL
hPa
Rain since
9am
mm
Dir  Spd
km/h
Gust
km/h
Spd
kts
Gust
kts
24/01:00pm 24.9 19.8 3.0 24 10.8 SE 19 28 10 15 1021.7 - 0.0
24/12:30pm 24.8 19.7 2.9 24 10.8 SE 19 35 10 19 1022.3 - 0.0
24/12:00pm 24.4 19.2 3.7 26 10.3 ESE 20 32 11 17 1022.7 1022.1 0.0
24/11:30am 22.9 17.3 3.4 28 9.6 SE 22 33 12 18 1023.1 - 0.0
24/11:00am 22.0 16.7 3.2 29 9.1 SE 20 30 11 16 1023.5 - 0.0
24/10:30am 21.1 15.5 3.3 31 8.6 ESE 22 37 12 20 1023.8 - 0.0
24/10:00am 20.2 14.6 3.4 33 8.1 SE 22 32 12 17 1024.0 - 0.0
24/09:30am 19.3 13.0 3.9 36 7.4 SE 26 39 14 21 1024.2 - 0.0
24/09:00am 18.4 13.3 4.2 39 6.8 SE 20 32 11 17 1024.2 1023.5 0.0
24/08:30am 17.4 12.6 4.7 43 6.1 SE 19 24 10 13 1023.9 - 0.0
24/08:00am 15.5 12.6 4.5 48 5.2 S 9 13 5 7 1023.5 - 0.0
24/07:30am 13.4 10.8 4.3 54 4.2 SSW 7 11 4 6 1023.1 - 0.0
24/07:00am 12.5 9.9 4.0 56 3.9 SSW 7 11 4 6 1022.6 - 0.0
24/06:30am 12.6 9.9 3.8 55 4.0 SSW 7 9 4 5 1022.3 - 0.0
24/06:00am 12.8 10.2 4.0 55 4.0 SSW 7 9 4 5 1022.0 1021.2 0.0
24/05:30am 13.2 10.7 3.8 53 4.3 SSW 6 9 3 5 1021.7 - 0.0
24/05:00am 13.9 10.9 3.9 51 4.6 S 9 11 5 6 1021.4 - 0.0
24/04:30am 14.2 11.6 4.2 51 4.7 SSW 7 9 4 5 1021.2 - 0.0
24/04:00am 14.3 11.7 4.0 50 4.8 SSW 7 9 4 5 1021.0 - 0.0
24/03:30am 14.7 12.0 3.8 48 5.1 SW 7 11 4 6 1020.8 - 0.0
24/03:00am 15.9 13.3 4.0 45 5.6 SSW 7 11 4 6 1020.6 1019.9 0.0
24/02:30am 16.1 13.4 3.5 43 5.9 SSW 7 11 4 6 1020.6 - 0.0
24/02:00am 17.1 14.3 3.4 40 6.4 SSW 7 9 4 5 1020.5 - 0.0
24/01:30am 17.7 14.9 3.2 38 6.8 SSW 7 9 4 5 1020.5 - 0.0
24/01:00am 18.9 15.6 2.7 34 7.6 S 9 11 5 6 1020.5 - 0.0
24/12:30am 20.1 16.5 2.9 32 8.2 S 11 15 6 8 1020.5 - 0.0
24/12:00am 20.9 17.3 2.7 30 8.7 SSE 11 20 6 11 1020.6 1019.9 0.0
 
Date/Time
CST
Temp
°C
App
Temp
°C
Dew
Point
°C
Rel
Hum
%
Delta-T
°C
Wind Press
QNH
hPa
Press
MSL
hPa
Rain since
9am
mm
Dir  Spd
km/h
Gust
km/h
Spd
kts
Gust
kts
23/11:30pm 21.5 17.5 2.7 29 9.0 SSE 13 20 7 11 1020.6 - 0.0
23/11:00pm 22.5 17.7 2.6 27 9.6 SSE 17 26 9 14 1020.4 - 0.0
23/10:30pm 23.3 18.5 2.7 26 10.0 SSE 17 24 9 13 1020.4 - 0.0
23/10:00pm 23.4 18.5 2.3 25 10.2 SSE 17 22 9 12 1020.4 - 0.0
23/09:30pm 23.7 19.6 2.5 25 10.3 SSE 13 20 7 11 1020.2 - 0.0
23/09:00pm 24.5 20.1 2.6 24 10.7 S 15 20 8 11 1019.9 1019.1 0.0
23/08:30pm 24.9 20.4 2.4 23 11.0 S 15 22 8 12 1019.6 - 0.0
23/08:00pm 25.3 20.9 2.7 23 11.1 S 15 20 8 11 1019.2 - 0.0
23/07:30pm 25.9 21.9 2.6 22 11.5 S 13 20 7 11 1018.9 - 0.0
23/07:00pm 26.6 22.5 2.5 21 11.9 S 13 22 7 12 1018.4 - 0.0
23/06:30pm 27.5 23.5 2.6 20 12.4 S 13 20 7 11 1018.0 - 0.0
23/06:00pm 28.1 25.3 3.0 20 12.6 S 7 9 4 5 1017.5 1016.8 0.0
23/05:30pm 30.0 26.7 2.3 17 14.0 S 9 13 5 7 1017.1 - 0.0
23/05:00pm 31.3 27.3 0.6 14 15.2 ESE 11 19 6 10 1016.7 - 0.0
23/04:30pm 31.8 28.1 0.0 13 15.6 ESE 9 15 5 8 1016.6 - 0.0
23/04:00pm 32.2 28.8 -0.8 12 16.0 ESE 7 17 4 9 1016.5 - 0.0
23/03:30pm 32.5 28.6 -1.7 11 16.4 S 9 15 5 8 1016.6 - 0.0
23/03:00pm 32.6 28.3 -1.7 11 16.4 SSW 11 15 6 8 1016.8 1016.0 0.0
23/02:30pm 32.6 29.2 -1.7 11 16.5 W 6 13 3 7 1016.9 - 0.0
23/02:00pm 33.0 29.3 -2.6 10 16.9 S 7 15 4 8 1017.1 - 0.0
23/01:30pm 32.3 28.6 -3.2 10 16.6 WNW 7 15 4 8 1017.6 - 0.0
23/01:00pm 31.4 27.8 -3.8 10 16.2 SSE 6 15 3 8 1018.2 - 0.0
23/12:30pm 31.2 28.3 -4.0 10 16.1 SW 2 11 1 6 1018.7 - 0.0
23/12:00pm 31.0 27.5 -2.9 11 15.7 WSW 6 13 3 7 1019.0 1018.3 0.0
23/11:30am 30.6 27.4 -3.2 11 15.6 NNW 4 13 2 7 1019.6 - 0.0
23/11:00am 28.8 25.0 -3.4 12 14.6 W 7 9 4 5 1019.9 - 0.0
23/10:30am 27.6 23.5 -3.3 13 13.9 WSW 9 15 5 8 1020.1 - 0.0
23/10:00am 26.3 22.2 -3.3 14 13.2 SW 9 11 5 6 1020.3 - 0.0
23/09:30am 24.5 20.6 -1.3 18 11.7 WSW 9 13 5 7 1020.3 - 0.0
23/09:00am 21.9 18.5 -0.8 22 10.2 WSW 7 11 4 6 1020.0 1019.1 0.0
23/08:30am 19.4 15.2 -1.1 25 9.0 WSW 11 15 6 8 1019.5 - 0.0
23/08:00am 17.7 14.1 -2.0 26 8.3 WNW 7 11 4 6 1019.1 - 0.0
23/07:30am 15.1 11.5 -1.9 31 7.0 W 7 11 4 6 1018.8 - 0.0
23/07:00am 13.3 9.6 -2.6 33 6.4 W 7 11 4 6 1018.5 - 0.0
23/06:30am 13.1 9.2 -1.2 37 5.9 WNW 9 11 5 6 1018.3 - 0.0
23/06:00am 11.7 8.2 -1.4 40 5.3 WNW 7 9 4 5 1017.8 1017.0 0.0
23/05:30am 12.4 9.1 -1.5 38 5.6 NNW 6 9 3 5 1017.5 - 0.0
23/05:00am 12.4 8.9 -2.6 35 5.9 NNW 6 7 3 4 1017.3 - 0.0
23/04:30am 13.2 9.2 -1.9 35 6.1 NNW 9 11 5 6 1017.1 - 0.0
23/04:00am 14.7 11.0 -2.7 30 7.0 N 7 9 4 5 1017.0 - 0.0
23/03:30am 15.8 11.5 -1.7 30 7.3 N 11 13 6 7 1017.1 - 0.0
23/03:00am 15.2 11.3 -1.4 32 6.9 N 9 11 5 6 1017.3 1016.6 0.0
23/02:30am 15.4 11.4 -2.1 30 7.2 N 9 11 5 6 1017.5 - 0.0
23/01:30am 14.7 10.8 -1.8 32 6.8 N 9 11 5 6 1017.6 - 0.0
23/01:00am 14.4 10.6 -3.4 29 7.1 N 7 9 4 5 1017.6 - 0.0
23/12:30am 16.4 12.9 -1.7 29 7.6 N 7 9 4 5 1017.7 - 0.0
23/12:00am 17.6 13.7 -1.6 27 8.2 N 9 13 5 7 1018.2 1017.5 0.0
 
Date/Time
CST
Temp
°C
App
Temp
°C
Dew
Point
°C
Rel
Hum
%
Delta-T
°C
Wind Press
QNH
hPa
Press
MSL
hPa
Rain since
9am
mm
Dir  Spd
km/h
Gust
km/h
Spd
kts
Gust
kts
22/11:30pm 17.9 13.6 -1.3 27 8.3 N 11 13 6 7 1018.5 - 0.0
22/11:00pm 17.1 13.3 -1.1 29 7.8 N 9 11 5 6 1018.7 - 0.0
22/10:30pm 16.9 13.4 -1.2 29 7.7 N 7 9 4 5 1018.8 - 0.0
22/10:00pm 16.5 12.9 -2.0 28 7.7 NNE 7 9 4 5 1018.9 - 0.0
22/09:30pm 17.3 13.9 -0.9 29 7.8 NNE 7 9 4 5 1018.9 - 0.0
22/09:00pm 17.6 14.3 -1.1 28 8.0 NE 6 7 3 4 1018.8 1018.0 0.0
22/08:30pm 18.1 14.9 -0.7 28 8.2 NE 6 9 3 5 1018.6 - 0.0
22/08:00pm 18.7 16.4 -2.3 24 8.9 CALM 0 0 0 0 1018.5 - 0.0
22/07:30pm 19.1 16.9 -1.9 24 9.0 CALM 0 0 0 0 1018.1 - 0.0
22/07:00pm 20.5 18.3 -1.9 22 9.7 CALM 0 0 0 0 1017.5 - 0.0
22/06:30pm 22.1 19.8 -2.6 19 10.7 CALM 0 0 0 0 1017.2 - 0.0
22/06:00pm 25.3 23.1 -1.5 17 12.2 CALM 0 0 0 0 1016.9 1016.1 0.0
22/05:30pm 29.0 26.8 -1.2 14 14.2 CALM 0 0 0 0 1016.5 - 0.0
22/05:00pm 30.4 28.0 -3.3 11 15.5 CALM 0 0 0 0 1016.3 - 0.0
22/04:30pm 30.8 27.1 -3.0 11 15.7 E 7 13 4 7 1016.1 - 0.0
22/04:00pm 31.1 27.0 -2.8 11 15.8 E 9 17 5 9 1015.9 - 0.0
22/03:30pm 31.3 27.6 -2.6 11 15.9 SSW 7 13 4 7 1015.8 - 0.0
22/03:00pm 31.5 28.0 -2.5 11 16.0 SSE 6 13 3 7 1015.9 1015.1 0.0
22/02:30pm 31.4 27.9 -1.4 12 15.7 SSW 7 15 4 8 1016.1 - 0.0
22/02:00pm 31.1 27.6 -1.6 12 15.5 S 7 15 4 8 1016.3 - 0.0
22/01:30pm 31.2 27.7 -1.5 12 15.6 N 7 11 4 6 1016.7 - 0.0
22/01:00pm 30.5 27.5 -2.1 12 15.3 WNW 4 15 2 8 1017.2 - 0.0
22/12:30pm 30.4 26.8 -2.2 12 15.3 NE 7 15 4 8 1017.7 - 0.0
22/12:00pm 29.2 25.2 -2.0 13 14.5 NNE 9 19 5 10 1018.2 1017.5 0.0
22/11:30am 28.8 24.5 -1.3 14 14.1 NNE 11 17 6 9 1018.8 - 0.0
22/11:00am 27.6 23.2 -2.3 14 13.7 N 11 19 6 10 1019.3 - 0.0
22/10:30am 26.6 21.7 -0.4 17 12.7 NNE 15 20 8 11 1019.6 - 0.0
22/10:00am 24.9 20.3 -1.0 18 11.9 N 13 17 7 9 1019.8 - 0.0
22/09:30am 23.4 18.9 -0.1 21 10.8 N 13 19 7 10 1019.9 - 0.0
22/09:00am 21.1 17.8 0.3 25 9.5 N 7 11 4 6 1019.8 1019.0 0.0
22/08:30am 16.7 13.9 -0.1 32 7.3 WNW 4 9 2 5 1019.6 - 0.0
22/08:00am 13.9 10.8 0.2 39 5.9 W 6 11 3 6 1019.3 - 0.0
22/07:30am 9.1 5.8 -0.2 52 3.8 WNW 7 9 4 5 1018.9 - 0.0
22/07:00am 7.4 4.2 -0.8 56 3.2 WNW 6 7 3 4 1018.6 - 0.0
22/06:30am 7.3 4.0 -1.1 55 3.3 WNW 6 7 3 4 1018.3 - 0.0
22/06:00am 7.2 4.9 -2.0 52 3.5 CALM 0 6 0 3 1017.8 1017.1 0.0
22/05:30am 7.5 5.3 -1.2 54 3.4 CALM 0 0 0 0 1017.7 - 0.0
22/05:00am 7.7 5.5 -1.5 52 3.6 CALM 0 0 0 0 1017.4 - 0.0
22/04:30am 8.0 5.8 -1.8 50 3.8 CALM 0 0 0 0 1017.1 - 0.0
22/04:00am 8.4 6.2 -1.7 49 3.9 CALM 0 4 0 2 1017.0 - 0.0
22/03:30am 8.7 5.3 -2.0 47 4.1 N 6 7 3 4 1017.0 - 0.0
22/03:00am 9.8 6.8 -1.9 44 4.6 N 4 6 2 3 1017.2 1016.4 0.0
22/02:30am 10.2 6.6 -1.8 43 4.7 NE 7 7 4 4 1017.3 - 0.0
22/02:00am 10.8 7.8 -1.6 42 4.9 NE 4 7 2 4 1017.2 - 0.0
22/01:30am 11.1 8.2 -1.3 42 5.0 ENE 4 6 2 3 1017.4 - 0.0
22/01:00am 11.9 9.8 -0.6 42 5.2 CALM 0 0 0 0 1017.5 - 0.0
22/12:30am 12.6 9.2 -2.4 35 6.0 E 6 7 3 4 1017.6 - 0.0
22/12:00am 15.1 11.6 -1.0 33 6.8 E 7 9 4 5 1017.7 1017.0 0.0
 
Date/Time
CST
Temp
°C
App
Temp
°C
Dew
Point
°C
Rel
Hum
%
Delta-T
°C
Wind Press
QNH
hPa
Press
MSL
hPa
Rain since
9am
mm
Dir  Spd
km/h
Gust
km/h
Spd
kts
Gust
kts
21/11:30pm 16.1 12.3 -0.6 32 7.2 E 9 13 5 7 1017.8 - 0.0
21/11:00pm 16.6 12.8 -1.0 30 7.5 E 9 13 5 7 1017.8 - 0.0
21/10:30pm 17.7 13.5 -1.0 28 8.1 E 11 17 6 9 1017.7 - 0.0
21/10:00pm 18.1 14.0 -0.2 29 8.1 ESE 11 15 6 8 1017.7 - 0.0
21/09:30pm 14.8 11.0 -0.9 34 6.6 ESE 9 13 5 7 1017.6 - 0.0
21/09:00pm 14.9 11.3 -2.1 31 7.0 SSE 7 9 4 5 1017.5 1016.8 0.0
21/08:30pm 15.4 12.1 -1.6 31 7.1 SSE 6 7 3 4 1017.3 - 0.0
21/08:00pm 16.5 13.3 -0.7 31 7.4 E 6 7 3 4 1016.8 - 0.0
21/07:30pm 17.0 13.5 -2.6 26 8.1 E 6 7 3 4 1016.4 - 0.0
21/07:00pm 18.7 15.3 -2.3 24 8.9 E 6 7 3 4 1016.1 - 0.0
21/06:30pm 20.6 16.9 -2.5 21 9.9 E 7 9 4 5 1015.7 - 0.0
21/06:00pm 23.5 20.0 -1.4 19 11.2 E 7 7 4 4 1015.5 1014.7 0.0
21/05:30pm 26.6 22.9 -3.1 14 13.3 NE 7 11 4 6 1015.2 - 0.0
21/05:00pm 28.0 24.3 -3.0 13 14.1 NE 7 13 4 7 1015.0 - 0.0
21/04:30pm 28.1 24.4 -2.9 13 14.1 ESE 7 15 4 8 1014.8 - 0.0
21/04:00pm 28.5 24.8 -2.6 13 14.3 N 7 17 4 9 1014.5 - 0.0
21/03:30pm 29.0 25.6 -2.2 13 14.5 SSW 6 15 3 8 1014.5 - 0.0
21/03:00pm 28.3 24.6 -2.7 13 14.2 ESE 7 13 4 7 1014.6 1013.8 0.0
21/02:30pm 28.5 24.5 -2.6 13 14.3 SSE 9 19 5 10 1014.9 - 0.0
21/02:00pm 27.7 23.2 -3.2 13 13.9 ESE 11 20 6 11 1015.2 - 0.0
21/01:30pm 28.0 24.0 -2.0 14 13.8 ENE 9 17 5 9 1015.6 - 0.0

Other Formats:

Comma delimited format used in spreadsheet applications
http://www.bom.gov.au/fwo/IDD60801/IDD60801.94327.axf

JavaScript Object Notation format (JSON) in row-major order
http://www.bom.gov.au/fwo/IDD60801/IDD60801.94327.json